Terminal Aerodrome Forecast
Issued by NWS Missoula, MT

Home | Current Version | Previous Version | Text Only | Print | Product List | Glossary On
Versions: 1 2 3 4 5 6 7 8 9 10 11 12 13 14 15 16
961
FTUS45 KMSO 291139
TAFGPI
TAF
KGPI 291139Z 2912/3012 17006KT P6SM BKN050
     FM291400 18006KT P6SM VCSH OVC050
     FM291500 17006KT P6SM -RA BKN040 OVC050
     FM291800 18007KT P6SM -RA BKN030 OVC040
     FM300000 19005KT P6SM VCSH BKN050=

USA.gov is the U.S. government's official web portal to all federal, state and local government web resources and services.